createdAt,value
2023-04-01T00:08:52.016Z,10.88
2023-04-01T00:11:38.005Z,10.75
2023-04-01T00:18:26.055Z,10.99
2023-04-01T00:25:00.353Z,11.11
2023-04-01T00:27:44.069Z,11.35
2023-04-01T00:30:27.884Z,11.39
2023-04-01T00:33:12.209Z,11.50
2023-04-01T00:35:56.258Z,11.45
2023-04-01T00:38:40.277Z,11.49
2023-04-01T00:41:24.163Z,11.43
2023-04-01T00:44:38.278Z,11.36
2023-04-01T00:47:24.754Z,11.46
2023-04-01T00:50:09.000Z,11.41
2023-04-01T00:52:54.153Z,11.24
2023-04-01T00:55:45.063Z,11.45
2023-04-01T00:58:36.379Z,10.99
2023-04-01T01:01:24.288Z,11.33
2023-04-01T01:26:32.185Z,10.64
2023-04-01T01:29:21.700Z,10.33
2023-04-01T01:32:40.763Z,10.73
2023-04-01T01:35:41.591Z,10.99
2023-04-01T01:38:36.921Z,10.70
2023-04-01T01:41:28.359Z,10.53
2023-04-01T01:44:16.479Z,10.31
2023-04-01T01:47:02.613Z,10.75
2023-04-01T01:49:48.376Z,10.49
2023-04-01T01:52:34.736Z,10.92
2023-04-01T01:55:31.768Z,11.05
2023-04-01T01:58:36.019Z,10.50
2023-04-01T02:01:29.146Z,11.03
2023-04-01T02:04:20.298Z,11.03
2023-04-01T02:07:13.685Z,11.25
2023-04-01T02:09:58.094Z,11.36
2023-04-01T02:12:47.617Z,11.34
2023-04-01T02:15:38.773Z,11.40
2023-04-01T02:18:23.478Z,11.31
2023-04-01T02:21:10.271Z,11.34
2023-04-01T02:23:57.863Z,11.46
2023-04-01T02:26:42.836Z,11.48
2023-04-01T02:29:27.149Z,11.44
2023-04-01T02:32:14.236Z,11.51
2023-04-01T02:35:00.332Z,11.45
2023-04-01T02:37:49.857Z,11.47
2023-04-01T02:40:49.751Z,11.42
2023-04-01T02:43:33.766Z,11.54
2023-04-01T02:46:17.831Z,11.44
2023-04-01T02:49:01.616Z,11.48
2023-04-01T02:51:46.425Z,11.45
2023-04-01T02:54:30.118Z,11.51
2023-04-01T02:57:13.792Z,11.51
2023-04-01T02:59:58.011Z,11.56
2023-04-01T03:02:41.873Z,11.58
2023-04-01T03:05:25.917Z,11.55
2023-04-01T03:08:09.698Z,11.43
2023-04-01T03:10:53.339Z,11.56
2023-04-01T03:13:37.565Z,11.55
2023-04-01T03:16:21.529Z,11.55
2023-04-01T03:19:08.059Z,11.62
2023-04-01T03:21:51.828Z,11.54
2023-04-01T03:24:35.510Z,11.48
2023-04-01T03:27:19.395Z,11.52
2023-04-01T03:30:06.344Z,11.65
2023-04-01T03:32:55.336Z,11.63
2023-04-01T03:35:39.045Z,11.52
2023-04-01T03:38:23.482Z,11.45
2023-04-01T03:41:07.388Z,11.53
2023-04-01T03:43:51.188Z,11.57
2023-04-01T03:46:35.234Z,11.57
2023-04-01T03:49:19.269Z,11.55
2023-04-01T03:52:03.084Z,11.44
2023-04-01T03:54:46.908Z,11.48
2023-04-01T03:57:33.285Z,11.50
2023-04-01T04:00:26.208Z,11.52
2023-04-01T04:03:12.687Z,11.59
2023-04-01T04:05:57.726Z,11.51
2023-04-01T04:08:41.872Z,11.55
2023-04-01T04:11:25.823Z,11.49
2023-04-01T04:14:10.405Z,11.52
2023-04-01T04:16:54.175Z,11.43
2023-04-01T04:19:37.809Z,11.47
2023-04-01T04:22:21.761Z,11.49
2023-04-01T04:25:06.112Z,11.54
2023-04-01T04:27:50.681Z,11.59
2023-04-01T04:30:34.540Z,11.55
2023-04-01T04:33:21.466Z,11.51
2023-04-01T04:36:05.908Z,11.55
2023-04-01T04:38:50.485Z,11.65
2023-04-01T04:41:35.948Z,11.52
2023-04-01T04:44:21.566Z,11.61
2023-04-01T04:47:08.040Z,10.90
2023-04-01T04:49:52.025Z,10.85
2023-04-01T04:52:36.254Z,11.11
2023-04-01T04:55:20.068Z,11.46
2023-04-01T04:58:10.807Z,11.25
2023-04-01T05:00:58.901Z,11.38
2023-04-01T05:03:48.393Z,11.37
2023-04-01T05:06:32.529Z,11.32
2023-04-01T05:09:16.504Z,11.58
2023-04-01T05:12:00.584Z,11.37
2023-04-01T05:14:49.673Z,11.60
2023-04-01T05:17:33.743Z,11.62
2023-04-01T05:20:18.584Z,11.59
2023-04-01T05:23:02.604Z,11.57
2023-04-01T05:25:46.773Z,11.47
2023-04-01T05:28:30.933Z,11.67
2023-04-01T05:31:14.876Z,11.55
2023-04-01T05:34:01.386Z,11.13
2023-04-01T05:36:46.081Z,11.57
2023-04-01T05:39:30.476Z,11.54
2023-04-01T05:42:14.727Z,11.76
2023-04-01T05:44:59.580Z,11.60
2023-04-01T05:48:03.730Z,11.19
2023-04-01T05:50:53.911Z,11.50
2023-04-01T05:53:37.582Z,11.28
2023-04-01T05:56:22.433Z,11.38
2023-04-01T05:59:11.253Z,11.31
2023-04-01T06:01:55.278Z,11.40
2023-04-01T06:04:41.627Z,11.12
2023-04-01T06:07:25.945Z,11.14
2023-04-01T06:10:21.916Z,11.34
2023-04-01T06:13:51.424Z,11.43
2023-04-01T06:16:56.793Z,11.57
2023-04-01T06:20:19.141Z,11.06
2023-04-01T06:23:14.845Z,11.29
2023-04-01T06:26:19.637Z,11.25
2023-04-01T06:29:48.837Z,11.28
2023-04-01T06:33:08.296Z,11.65
2023-04-01T06:36:36.920Z,11.22
2023-04-01T06:39:39.866Z,11.30
2023-04-01T06:42:51.849Z,11.08
2023-04-01T06:46:14.650Z,11.32
2023-04-01T06:50:06.762Z,11.34
2023-04-01T06:53:31.258Z,11.27
2023-04-01T06:56:49.902Z,11.22
2023-04-01T06:59:43.041Z,11.02
2023-04-01T07:02:40.621Z,10.95
2023-04-01T07:05:25.197Z,11.61
2023-04-01T07:08:25.880Z,11.21
2023-04-01T07:11:33.002Z,11.32
2023-04-01T07:14:58.660Z,11.63
2023-04-01T07:17:52.396Z,11.35
2023-04-01T07:20:39.222Z,11.80
2023-04-01T07:23:35.596Z,11.67
2023-04-01T07:36:29.070Z,11.41
2023-04-01T07:39:47.989Z,11.56
2023-04-01T07:43:23.553Z,11.95
2023-04-01T07:47:11.258Z,11.58
2023-04-01T07:55:08.294Z,10.71
2023-04-01T08:01:11.615Z,11.13
2023-04-01T08:04:03.059Z,11.18
2023-04-01T08:07:11.287Z,11.55
2023-04-01T08:10:40.791Z,12.19
2023-04-01T08:14:10.108Z,12.62
2023-04-01T08:17:47.421Z,11.28
2023-04-01T08:20:49.422Z,11.58
2023-04-01T08:23:39.979Z,11.11
2023-04-01T08:26:27.310Z,11.26
2023-04-01T08:29:18.503Z,11.26
2023-04-01T08:32:33.879Z,11.38
2023-04-01T08:35:44.546Z,11.59
2023-04-01T08:38:37.309Z,11.76
2023-04-01T08:41:46.936Z,11.05
2023-04-01T08:45:32.122Z,10.92
2023-04-01T08:48:58.886Z,10.89
2023-04-01T08:51:57.080Z,11.27
2023-04-01T08:55:24.658Z,10.53
2023-04-01T08:58:45.513Z,10.00
2023-04-01T09:02:05.977Z,10.64
2023-04-01T09:05:34.401Z,10.31
2023-04-01T09:08:58.538Z,10.78
2023-04-01T09:12:19.292Z,11.14
2023-04-01T09:15:40.499Z,11.08
2023-04-01T09:18:44.245Z,11.21
2023-04-01T09:22:00.590Z,11.21
2023-04-01T09:25:26.657Z,10.35
2023-04-01T09:28:30.366Z,10.02
2023-04-01T09:31:37.535Z,10.13
2023-04-01T09:34:54.897Z,10.85
2023-04-01T09:38:23.766Z,11.09
2023-04-01T09:41:43.113Z,11.10
2023-04-01T09:44:37.123Z,10.26
2023-04-01T09:48:09.206Z,10.22
2023-04-01T09:50:58.783Z,10.28
2023-04-01T09:54:29.161Z,10.55
2023-04-01T09:57:58.768Z,10.70
2023-04-01T10:01:35.569Z,10.59
2023-04-01T10:04:48.427Z,10.99
2023-04-01T10:07:41.009Z,10.72
2023-04-01T10:10:36.549Z,11.05
2023-04-01T10:14:10.605Z,10.64
2023-04-01T10:17:23.186Z,10.90
2023-04-01T10:20:32.648Z,10.96
2023-04-01T10:23:46.657Z,10.71
2023-04-01T10:27:04.977Z,11.15
2023-04-01T10:30:20.257Z,10.95
2023-04-01T10:33:16.774Z,11.01
2023-04-01T10:36:20.545Z,11.25
2023-04-01T10:39:33.067Z,11.33
2023-04-01T10:43:09.063Z,11.22
2023-04-01T10:46:23.432Z,10.92
2023-04-01T10:49:45.133Z,11.07
2023-04-01T10:53:22.902Z,10.85
2023-04-01T10:56:56.640Z,11.01
2023-04-01T11:01:14.258Z,11.04
2023-04-01T11:05:20.911Z,11.05
2023-04-01T11:08:57.549Z,11.30
2023-04-01T11:12:36.696Z,11.24
2023-04-01T11:15:54.397Z,10.97
2023-04-01T11:18:53.088Z,10.99
2023-04-01T11:22:24.336Z,11.21
2023-04-01T11:25:36.563Z,10.95
2023-04-01T11:29:22.083Z,10.66
2023-04-01T11:32:44.324Z,10.40
2023-04-01T11:36:32.649Z,10.55
2023-04-01T11:39:35.780Z,10.44
2023-04-01T11:43:32.487Z,9.95
2023-04-01T11:47:07.828Z,10.49
2023-04-01T11:50:15.702Z,10.21
2023-04-01T11:53:46.103Z,10.42
2023-04-01T11:56:58.595Z,10.36
2023-04-01T12:00:02.729Z,10.64
2023-04-01T12:03:34.977Z,10.05
2023-04-01T12:06:43.212Z,10.22
2023-04-01T12:09:49.966Z,10.12
2023-04-01T12:13:20.558Z,9.97
2023-04-01T12:16:25.876Z,10.04
2023-04-01T12:19:56.961Z,10.32
2023-04-01T12:23:06.336Z,10.00
2023-04-01T12:26:28.972Z,10.17
2023-04-01T12:29:55.307Z,9.56
2023-04-01T12:33:05.651Z,9.82
2023-04-01T12:36:08.961Z,9.98
2023-04-01T12:39:04.811Z,9.17
2023-04-01T12:42:52.650Z,9.80
2023-04-01T12:45:50.674Z,10.07
2023-04-01T12:49:22.186Z,9.59
2023-04-01T12:52:12.668Z,9.79
2023-04-01T12:55:34.352Z,10.01
2023-04-01T12:58:42.805Z,9.85
2023-04-01T13:02:16.966Z,9.43
2023-04-01T13:05:13.760Z,10.29
2023-04-01T13:08:44.896Z,9.34
2023-04-01T13:12:26.367Z,8.93
2023-04-01T13:15:49.898Z,9.46
2023-04-01T13:18:57.026Z,9.31
2023-04-01T13:22:16.372Z,9.48
2023-04-01T13:25:29.064Z,9.57
2023-04-01T13:28:24.698Z,9.63
2023-04-01T13:31:57.328Z,9.35
2023-04-01T13:35:25.049Z,9.57
2023-04-01T13:38:56.645Z,9.67
2023-04-01T13:41:56.578Z,9.52
2023-04-01T13:45:15.480Z,9.86
2023-04-01T13:48:13.482Z,9.62
2023-04-01T13:51:57.617Z,9.58
2023-04-01T13:55:09.215Z,9.73
2023-04-01T13:58:19.855Z,9.51
2023-04-01T14:01:19.254Z,9.83
2023-04-01T14:04:31.792Z,8.82
2023-04-01T14:07:21.384Z,9.44
2023-04-01T14:10:48.377Z,9.09
2023-04-01T14:13:46.842Z,9.50
2023-04-01T14:17:04.361Z,9.94
2023-04-01T14:20:21.807Z,8.93
2023-04-01T14:23:20.586Z,8.36
2023-04-01T14:26:52.332Z,9.11
2023-04-01T14:30:33.900Z,8.86
2023-04-01T14:33:56.202Z,8.99
2023-04-01T14:37:09.228Z,9.48
2023-04-01T14:40:36.438Z,9.06
2023-04-01T14:43:45.734Z,8.38
2023-04-01T14:47:26.931Z,7.96
2023-04-01T14:50:21.676Z,8.35
2023-04-01T14:53:08.141Z,7.66
2023-04-01T14:55:58.789Z,8.27
2023-04-01T14:58:58.687Z,8.41
2023-04-01T15:01:58.348Z,7.91
2023-04-01T15:05:11.871Z,8.37
2023-04-01T15:08:12.208Z,7.71
2023-04-01T15:11:34.822Z,7.92
2023-04-01T15:14:31.232Z,8.20
2023-04-01T15:17:29.001Z,7.79
2023-04-01T15:20:31.233Z,7.65
2023-04-01T15:23:33.520Z,8.13
2023-04-01T15:26:31.124Z,7.82
2023-04-01T15:29:44.658Z,7.96
2023-04-01T15:32:45.726Z,8.35
2023-04-01T15:35:58.558Z,8.48
2023-04-01T15:39:16.517Z,8.09
2023-04-01T15:42:42.378Z,7.99
2023-04-01T15:45:59.230Z,8.18
2023-04-01T15:49:32.454Z,8.05
2023-04-01T15:52:40.660Z,7.99
2023-04-01T15:56:08.787Z,7.81
2023-04-01T15:59:20.226Z,8.13
2023-04-01T16:02:22.512Z,7.72
2023-04-01T16:05:35.560Z,7.49
2023-04-01T16:08:50.169Z,7.51
2023-04-01T16:11:58.232Z,7.60
2023-04-01T16:14:53.786Z,7.41
2023-04-01T16:18:33.527Z,7.50
2023-04-01T16:21:46.646Z,7.18
2023-04-01T16:24:50.283Z,7.35
2023-04-01T16:28:05.351Z,7.67
2023-04-01T16:31:25.759Z,7.24
2023-04-01T16:34:26.812Z,7.28
2023-04-01T16:37:17.597Z,6.58
2023-04-01T16:40:35.584Z,6.87
2023-04-01T16:43:56.849Z,6.95
2023-04-01T16:46:47.506Z,6.68
2023-04-01T16:49:43.272Z,7.30
2023-04-01T16:52:37.934Z,6.76
2023-04-01T16:55:26.297Z,7.26
2023-04-01T16:58:20.060Z,7.07
2023-04-01T17:01:53.117Z,7.17
2023-04-01T17:05:05.148Z,6.76
2023-04-01T17:08:34.534Z,6.71
2023-04-01T17:11:31.396Z,6.44
2023-04-01T17:14:43.288Z,6.78
2023-04-01T17:17:42.212Z,6.52
2023-04-01T17:20:47.733Z,6.61
2023-04-01T17:24:12.354Z,6.73
2023-04-01T17:27:22.318Z,6.42
2023-04-01T17:30:45.045Z,6.54
2023-04-01T17:33:54.641Z,6.18
2023-04-01T17:37:10.704Z,6.49
2023-04-01T17:40:20.284Z,6.54
2023-04-01T17:43:38.265Z,6.71
2023-04-01T17:46:46.218Z,6.55
2023-04-01T17:50:01.613Z,6.87
2023-04-01T17:53:18.780Z,6.23
2023-04-01T17:56:17.827Z,6.37
2023-04-01T17:59:46.731Z,6.56
2023-04-01T18:03:06.741Z,6.57
2023-04-01T18:06:33.631Z,6.51
2023-04-01T18:09:27.590Z,6.36
2023-04-01T18:12:39.203Z,6.64
2023-04-01T18:16:10.810Z,5.81
2023-04-01T18:19:20.726Z,6.09
2023-04-01T18:23:07.931Z,5.52
2023-04-01T18:26:04.656Z,5.71
2023-04-01T18:28:57.466Z,5.66
2023-04-01T18:31:49.401Z,5.33
2023-04-01T18:35:03.960Z,5.56
2023-04-01T18:38:04.051Z,5.58
2023-04-01T18:41:15.353Z,5.42
2023-04-01T18:44:35.738Z,5.34
2023-04-01T18:47:45.101Z,5.62
2023-04-01T18:50:57.894Z,5.71
2023-04-01T18:54:09.104Z,5.62
2023-04-01T18:57:14.439Z,5.62
2023-04-01T19:00:17.310Z,5.46
2023-04-01T19:03:17.266Z,5.40
2023-04-01T19:06:14.551Z,5.26
2023-04-01T19:09:40.599Z,5.45
2023-04-01T19:12:30.462Z,5.25
2023-04-01T19:16:08.812Z,5.56
2023-04-01T19:19:38.703Z,5.77
2023-04-01T19:22:37.638Z,5.81
2023-04-01T19:25:33.759Z,5.30
2023-04-01T19:28:45.310Z,4.91
2023-04-01T19:32:19.348Z,5.29
2023-04-01T19:35:43.148Z,5.14
2023-04-01T19:39:01.744Z,5.22
2023-04-01T19:42:33.945Z,4.93
2023-04-01T19:45:46.264Z,5.15
2023-04-01T19:49:02.594Z,5.28
2023-04-01T19:52:13.032Z,5.42
2023-04-01T19:55:33.573Z,4.97
2023-04-01T19:58:17.191Z,5.22
2023-04-01T20:01:04.517Z,4.97
2023-04-01T20:04:21.647Z,4.57
2023-04-01T20:07:38.936Z,4.41
2023-04-01T20:10:54.324Z,4.77
2023-04-01T20:13:50.173Z,4.56
2023-04-01T20:17:08.310Z,4.72
2023-04-01T20:20:10.310Z,4.62
2023-04-01T20:23:29.371Z,4.58
2023-04-01T20:26:20.720Z,4.87
2023-04-01T20:29:22.770Z,4.65
2023-04-01T20:32:53.869Z,4.31
2023-04-01T20:36:16.437Z,4.23
2023-04-01T20:39:08.800Z,4.43
2023-04-01T20:42:32.890Z,4.59
2023-04-01T20:45:42.327Z,4.47
2023-04-01T20:49:20.220Z,4.65
2023-04-01T20:52:25.780Z,4.12
2023-04-01T20:55:50.780Z,4.70
2023-04-01T20:58:53.082Z,4.27
2023-04-01T21:01:55.292Z,4.32
2023-04-01T21:05:51.593Z,4.60
2023-04-01T21:09:02.444Z,4.44
2023-04-01T21:11:57.606Z,4.41
2023-04-01T21:15:23.625Z,4.04
2023-04-01T21:18:25.504Z,4.41
2023-04-01T21:21:29.782Z,4.32
2023-04-01T21:24:34.374Z,4.60
2023-04-01T21:28:04.855Z,4.07
2023-04-01T21:31:47.929Z,3.84
2023-04-01T21:34:47.376Z,3.74
2023-04-01T21:37:31.134Z,4.01
2023-04-01T21:40:56.540Z,3.95
2023-04-01T21:43:59.291Z,3.86
2023-04-01T21:47:23.525Z,4.05
2023-04-01T21:50:48.716Z,4.24
2023-04-01T21:54:19.332Z,3.99
2023-04-01T21:57:21.748Z,3.80
2023-04-01T22:00:17.538Z,4.04
2023-04-01T22:03:28.468Z,3.84
2023-04-01T22:06:29.472Z,3.93
2023-04-01T22:09:28.038Z,3.93
2023-04-01T22:12:48.374Z,3.91
2023-04-01T22:16:02.488Z,3.92
2023-04-01T22:19:00.526Z,3.83
2023-04-01T22:22:10.050Z,3.92
2023-04-01T22:25:17.368Z,3.45
2023-04-01T22:28:42.776Z,3.62
2023-04-01T22:31:51.365Z,3.66
2023-04-01T22:34:50.787Z,3.44
2023-04-01T22:38:04.217Z,3.90
2023-04-01T22:41:06.902Z,3.51
2023-04-01T22:43:52.497Z,3.47
2023-04-01T22:47:16.429Z,3.74
2023-04-01T22:50:19.766Z,3.73
2023-04-01T22:53:23.891Z,3.31
2023-04-01T22:56:19.608Z,3.35
2023-04-01T22:59:52.920Z,3.30
2023-04-01T23:03:13.028Z,3.40
2023-04-01T23:06:00.733Z,3.56
2023-04-01T23:09:01.014Z,3.61
2023-04-01T23:12:04.225Z,3.54
2023-04-01T23:14:57.723Z,3.37
2023-04-01T23:18:07.054Z,3.35
2023-04-01T23:21:19.661Z,3.31
2023-04-01T23:24:21.660Z,3.18
2023-04-01T23:27:26.408Z,3.24
2023-04-01T23:30:41.134Z,3.40
2023-04-01T23:33:32.448Z,3.39
2023-04-01T23:36:16.894Z,3.24
2023-04-01T23:39:22.995Z,3.19
2023-04-01T23:42:16.395Z,3.27
2023-04-01T23:45:06.651Z,3.44
2023-04-01T23:47:51.725Z,3.20
2023-04-01T23:50:35.869Z,3.23
2023-04-01T23:53:25.752Z,3.34
2023-04-01T23:56:09.663Z,3.10
2023-04-01T23:58:57.782Z,3.16
